Time;durP1;ratioP1;P1;durP2;ratioP2;P2;SDS_P1;SDS_P2;PMS_P1;PMS_P2;Temp;Humidity;BMP_temperature;BMP_pressure;BME280_temperature;BME280_humidity;BME280_pressure;Samples;Min_cycle;Max_cycle;Signal;HPM_P1;HPM_P2
2022/02/18 00:01:48;;;;;;;6.67;4.17;;;7.80;61.30;;;;;;1943024;74;21108;-55
2022/02/18 00:04:18;;;;;;;5.60;4.47;;;7.80;59.70;;;;;;1943178;74;21088;-55
2022/02/18 00:06:47;;;;;;;6.67;4.05;;;7.80;60.00;;;;;;1943117;74;21003;-55
2022/02/18 00:09:17;;;;;;;7.58;4.58;;;7.80;60.40;;;;;;1943118;73;21109;-55
2022/02/18 00:11:47;;;;;;;7.35;5.00;;;7.80;59.80;;;;;;1943157;73;21507;-55
2022/02/18 00:14:17;;;;;;;8.50;4.62;;;7.80;59.80;;;;;;1942942;74;21077;-55
2022/02/18 00:16:46;;;;;;;5.15;3.05;;;7.80;60.50;;;;;;1943037;74;20995;-55
2022/02/18 00:19:16;;;;;;;9.83;2.92;;;7.80;60.50;;;;;;1943099;74;21039;-55
2022/02/18 00:21:46;;;;;;;5.15;3.50;;;7.80;59.40;;;;;;1943018;74;21019;-54
2022/02/18 00:24:16;;;;;;;6.87;4.20;;;7.80;60.20;;;;;;1943118;74;21023;-55
2022/02/18 00:26:46;;;;;;;4.85;3.85;;;7.80;60.00;;;;;;1943000;74;21058;-55
2022/02/18 00:29:16;;;;;;;8.33;4.00;;;7.80;60.40;;;;;;1943113;74;21645;-55
2022/02/18 00:31:45;;;;;;;7.22;4.55;;;7.80;60.60;;;;;;1943072;74;21026;-55
2022/02/18 00:34:14;;;;;;;6.33;4.30;;;7.70;61.10;;;;;;1943172;74;21019;-55
2022/02/18 00:36:46;;;;;;;5.92;4.10;;;7.70;61.40;;;;;;1943158;74;21164;-55
2022/02/18 00:39:15;;;;;;;7.35;4.33;;;7.70;61.30;;;;;;1943157;74;21022;-55
2022/02/18 00:41:45;;;;;;;5.45;3.77;;;7.70;61.10;;;;;;1943092;74;21039;-55
2022/02/18 00:44:15;;;;;;;5.08;3.72;;;7.70;60.50;;;;;;1943145;74;21019;-55
2022/02/18 00:46:45;;;;;;;7.42;3.60;;;7.70;60.50;;;;;;1943102;74;21109;-56
2022/02/18 00:49:14;;;;;;;8.08;3.90;;;7.70;60.50;;;;;;1943187;74;21031;-55
2022/02/18 00:51:44;;;;;;;4.97;3.60;;;7.70;60.20;;;;;;1943302;74;21020;-55
2022/02/18 00:54:13;;;;;;;5.22;3.37;;;7.70;60.00;;;;;;1943049;74;21074;-55
2022/02/18 00:56:44;;;;;;;6.03;3.77;;;7.70;60.50;;;;;;1943048;74;21019;-55
2022/02/18 00:59:13;;;;;;;4.92;3.50;;;7.70;59.60;;;;;;1943181;74;21113;-56
2022/02/18 01:01:43;;;;;;;4.60;3.60;;;7.70;59.60;;;;;;1943205;73;21104;-55
2022/02/18 01:04:14;;;;;;;4.87;3.15;;;7.80;60.10;;;;;;1943155;74;21035;-55
2022/02/18 01:06:45;;;;;;;7.67;4.10;;;7.70;59.00;;;;;;1943198;73;21088;-55
2022/02/18 01:09:14;;;;;;;5.80;4.00;;;7.80;60.30;;;;;;1943209;74;20999;-55
2022/02/18 01:11:45;;;;;;;6.60;4.15;;;7.70;60.40;;;;;;1942874;74;21079;-55
2022/02/18 01:14:14;;;;;;;7.47;4.05;;;7.70;60.60;;;;;;1943202;74;21019;-55
2022/02/18 01:16:44;;;;;;;5.12;3.62;;;7.70;60.80;;;;;;1943096;74;21019;-55
2022/02/18 01:19:14;;;;;;;5.67;3.75;;;7.70;59.20;;;;;;1943227;74;21023;-55
2022/02/18 01:21:43;;;;;;;7.45;4.50;;;7.70;60.60;;;;;;1943104;74;21088;-55
2022/02/18 01:24:12;;;;;;;8.28;4.62;;;7.70;61.00;;;;;;1943098;74;21105;-55
2022/02/18 01:26:42;;;;;;;5.37;3.98;;;7.70;61.10;;;;;;1943143;74;21314;-55
2022/02/18 01:29:11;;;;;;;9.63;4.00;;;7.60;61.40;;;;;;1943155;74;21081;-55
2022/02/18 01:31:40;;;;;;;6.42;3.65;;;7.60;61.40;;;;;;1943118;74;21012;-55
2022/02/18 01:34:10;;;;;;;6.10;4.00;;;7.60;60.50;;;;;;1943202;73;21116;-55
2022/02/18 01:36:39;;;;;;;6.45;4.33;;;7.60;61.20;;;;;;1943056;73;21022;-56
2022/02/18 01:39:10;;;;;;;5.85;4.47;;;7.60;61.00;;;;;;1943237;74;21524;-55
2022/02/18 01:41:39;;;;;;;5.35;4.37;;;7.60;61.10;;;;;;1943222;74;21027;-55
2022/02/18 01:44:09;;;;;;;4.37;3.17;;;7.60;60.80;;;;;;1943175;74;20991;-55
2022/02/18 01:46:38;;;;;;;4.90;3.30;;;7.60;58.50;;;;;;1943209;74;21143;-55
2022/02/18 01:49:08;;;;;;;5.70;3.08;;;7.70;59.40;;;;;;1943250;74;21018;-55
2022/02/18 01:51:37;;;;;;;8.05;4.85;;;7.70;59.30;;;;;;1943303;74;21019;-55
2022/02/18 01:54:07;;;;;;;7.08;4.28;;;7.70;60.20;;;;;;1943271;74;21023;-55
2022/02/18 01:56:37;;;;;;;6.67;3.77;;;7.70;60.60;;;;;;1943155;73;21116;-55
2022/02/18 01:59:07;;;;;;;7.30;4.83;;;7.70;60.00;;;;;;1943142;74;21100;-55
2022/02/18 02:01:37;;;;;;;6.45;4.37;;;7.70;59.60;;;;;;1943295;73;21015;-55
2022/02/18 02:04:07;;;;;;;8.48;4.37;;;7.70;58.90;;;;;;1943194;74;21023;-55
2022/02/18 02:06:37;;;;;;;8.03;4.75;;;7.70;59.40;;;;;;1943205;73;21470;-56
2022/02/18 02:09:06;;;;;;;6.70;5.00;;;7.80;60.00;;;;;;1943309;73;21015;-56
2022/02/18 02:11:36;;;;;;;8.43;4.28;;;7.80;59.30;;;;;;1943191;74;21112;-55
2022/02/18 02:14:06;;;;;;;8.30;4.60;;;7.80;59.50;;;;;;1943274;74;21125;-55
2022/02/18 02:16:37;;;;;;;7.85;5.20;;;7.70;59.00;;;;;;1943143;74;21097;-55
2022/02/18 02:19:06;;;;;;;8.68;4.87;;;7.70;59.20;;;;;;1943172;74;20999;-55
2022/02/18 02:21:37;;;;;;;6.67;4.70;;;7.80;59.40;;;;;;1943188;74;21184;-55
2022/02/18 02:24:07;;;;;;;6.83;5.05;;;7.80;58.70;;;;;;1943077;74;21019;-55
2022/02/18 02:26:37;;;;;;;8.55;4.45;;;7.80;58.60;;;;;;1943088;74;21093;-55
2022/02/18 02:29:06;;;;;;;9.60;5.30;;;7.80;58.60;;;;;;1943188;73;20995;-55
2022/02/18 02:31:35;;;;;;;4.08;2.77;;;7.80;58.20;;;;;;1943056;74;21088;-55
2022/02/18 02:34:05;;;;;;;7.12;4.42;;;7.80;58.00;;;;;;1943205;74;21011;-55
2022/02/18 02:36:36;;;;;;;6.40;4.65;;;7.90;58.20;;;;;;1942750;74;21071;-55
2022/02/18 02:39:07;;;;;;;7.67;3.77;;;7.80;58.10;;;;;;1943262;74;21050;-55
2022/02/18 02:41:37;;;;;;;8.40;4.58;;;7.90;57.80;;;;;;1943068;74;21019;-55
2022/02/18 02:44:07;;;;;;;11.18;4.92;;;7.90;57.70;;;;;;1943244;74;21014;-56
2022/02/18 02:46:37;;;;;;;8.25;4.65;;;7.90;58.60;;;;;;1943057;74;21018;-55
2022/02/18 02:49:08;;;;;;;8.35;4.22;;;7.90;58.50;;;;;;1940146;74;21093;-55
2022/02/18 02:51:39;;;;;;;12.20;4.50;;;7.90;57.60;;;;;;1942109;74;21046;-55
2022/02/18 02:54:09;;;;;;;7.40;5.25;;;7.90;58.20;;;;;;1943174;74;21031;-55
2022/02/18 02:56:38;;;;;;;7.62;5.05;;;7.90;57.80;;;;;;1943051;74;21086;-55
2022/02/18 02:59:09;;;;;;;9.13;4.58;;;7.90;57.50;;;;;;1948333;73;21127;-55
2022/02/18 03:01:40;;;;;;;8.20;5.37;;;7.90;57.70;;;;;;1947563;74;21042;-55
2022/02/18 03:04:09;;;;;;;8.10;5.28;;;7.90;57.70;;;;;;1948697;74;21022;-55
2022/02/18 03:06:39;;;;;;;7.05;4.90;;;8.00;57.60;;;;;;1948774;73;21474;-55
2022/02/18 03:09:12;;;;;;;10.53;5.78;;;7.90;58.20;;;;;;1948668;74;21043;-56
2022/02/18 03:11:43;;;;;;;8.90;5.20;;;7.90;58.80;;;;;;1939639;74;21597;-55
2022/02/18 03:14:24;;;;;;;13.22;5.75;;;7.90;58.20;;;;;;1909159;74;21077;-54
2022/02/18 03:16:55;;;;;;;9.23;5.22;;;7.90;57.90;;;;;;1947489;74;21018;-54
2022/02/18 03:19:24;;;;;;;8.80;5.22;;;7.90;57.80;;;;;;1948560;74;21014;-54
2022/02/18 03:21:56;;;;;;;7.20;5.10;;;8.00;57.90;;;;;;1948649;74;21070;-56
2022/02/18 03:24:24;;;;;;;7.85;4.92;;;8.00;57.80;;;;;;1948570;74;20991;-56
2022/02/18 03:26:55;;;;;;;8.45;5.00;;;8.00;58.00;;;;;;1948720;73;20995;-55
2022/02/18 03:29:26;;;;;;;14.10;5.55;;;8.00;58.10;;;;;;1948411;73;21022;-55
2022/02/18 03:32:00;;;;;;;4.73;3.20;;;8.00;58.30;;;;;;1948541;73;21046;-55
2022/02/18 03:34:31;;;;;;;7.78;4.87;;;8.00;57.70;;;;;;1948596;74;21398;-55
2022/02/18 03:37:01;;;;;;;10.65;5.22;;;8.00;58.20;;;;;;1948634;73;21019;-54
2022/02/18 03:39:31;;;;;;;6.72;4.55;;;8.00;57.90;;;;;;1948768;74;21019;-55
2022/02/18 03:42:02;;;;;;;7.53;4.47;;;8.00;58.30;;;;;;1948682;73;21105;-55
2022/02/18 03:44:35;;;;;;;10.10;6.62;;;8.00;57.80;;;;;;1948745;73;21142;-55
2022/02/18 03:47:09;;;;;;;8.20;5.15;;;8.00;58.30;;;;;;1948427;74;21034;-55
2022/02/18 03:49:38;;;;;;;10.55;5.08;;;8.00;58.00;;;;;;1948578;73;21108;-55
2022/02/18 03:52:09;;;;;;;8.13;5.35;;;8.00;58.40;;;;;;1948671;74;21022;-55
2022/02/18 03:54:39;;;;;;;8.55;5.80;;;8.00;59.00;;;;;;1948678;74;21027;-55
2022/02/18 03:57:08;;;;;;;8.23;5.53;;;8.00;58.80;;;;;;1948706;74;21023;-55
2022/02/18 03:59:37;;;;;;;9.33;5.87;;;8.00;58.40;;;;;;1936404;73;21113;-55
2022/02/18 04:02:07;;;;;;;10.95;5.92;;;8.00;58.60;;;;;;1935710;74;21019;-55
2022/02/18 04:04:36;;;;;;;5.47;4.47;;;8.00;58.30;;;;;;1935528;74;21101;-55
2022/02/18 04:07:26;;;;;;;10.28;6.50;;;8.00;58.20;;;;;;1935076;74;21063;-55
2022/02/18 04:09:57;;;;;;;7.80;5.55;;;8.00;58.30;;;;;;1932910;74;21031;-55
2022/02/18 04:12:27;;;;;;;8.75;5.42;;;8.00;58.40;;;;;;1935585;74;21023;-56
2022/02/18 04:14:58;;;;;;;14.05;6.08;;;8.00;58.70;;;;;;1934799;74;21133;-55
2022/02/18 04:17:27;;;;;;;11.85;6.80;;;8.00;58.30;;;;;;1935621;74;21019;-56
2022/02/18 04:19:58;;;;;;;17.60;7.17;;;8.10;58.80;;;;;;1933478;74;21489;-55
2022/02/18 04:22:29;;;;;;;25.17;8.35;;;8.00;58.80;;;;;;1934196;74;21034;-55
2022/02/18 04:24:59;;;;;;;8.10;5.62;;;8.00;58.70;;;;;;1935747;74;21129;-55
2022/02/18 04:27:28;;;;;;;12.80;6.75;;;8.00;58.90;;;;;;1935738;74;21092;-55
2022/02/18 04:29:58;;;;;;;11.70;6.60;;;8.00;58.90;;;;;;1935692;74;21023;-55
2022/02/18 04:32:27;;;;;;;7.58;5.67;;;8.00;59.40;;;;;;1935744;74;21115;-55
2022/02/18 04:34:57;;;;;;;9.25;5.67;;;8.00;58.90;;;;;;1935594;74;21011;-55
2022/02/18 04:37:26;;;;;;;11.28;4.92;;;8.00;59.00;;;;;;1935583;74;21015;-55
2022/02/18 04:39:55;;;;;;;10.05;5.85;;;8.00;58.40;;;;;;1935555;74;21039;-55
2022/02/18 04:42:25;;;;;;;9.80;5.50;;;8.00;58.50;;;;;;1935607;74;21015;-55
2022/02/18 04:44:54;;;;;;;16.52;6.95;;;8.10;58.50;;;;;;1935724;74;21027;-55
2022/02/18 04:47:23;;;;;;;12.18;4.45;;;8.10;58.90;;;;;;1935723;74;21098;-55
2022/02/18 04:49:54;;;;;;;11.93;6.20;;;8.10;58.20;;;;;;1935664;74;21058;-55
2022/02/18 04:52:24;;;;;;;10.90;5.85;;;8.10;58.20;;;;;;1935658;74;21136;-55
2022/02/18 04:54:54;;;;;;;15.20;6.80;;;8.20;58.30;;;;;;1935498;74;21046;-55
2022/02/18 04:57:23;;;;;;;15.13;7.12;;;8.20;58.20;;;;;;1935665;74;21062;-55
2022/02/18 04:59:53;;;;;;;13.62;6.35;;;8.20;57.70;;;;;;1935398;74;21341;-55
2022/02/18 05:02:23;;;;;;;11.15;5.83;;;8.20;57.00;;;;;;1935593;74;21037;-55
2022/02/18 05:04:53;;;;;;;19.67;6.33;;;8.30;57.50;;;;;;1935530;74;21112;-55
2022/02/18 05:07:22;;;;;;;9.68;5.62;;;8.30;56.00;;;;;;1935565;74;20999;-55
2022/02/18 05:09:51;;;;;;;10.20;5.87;;;8.40;56.40;;;;;;1935602;74;21027;-55
2022/02/18 05:12:21;;;;;;;10.48;5.22;;;8.40;55.70;;;;;;1935732;74;21093;-55
2022/02/18 05:14:51;;;;;;;10.32;5.80;;;8.50;55.10;;;;;;1935685;74;21019;-55
2022/02/18 05:17:20;;;;;;;5.42;4.08;;;8.50;56.40;;;;;;1935675;74;21089;-55
2022/02/18 05:19:50;;;;;;;13.88;6.72;;;8.50;55.80;;;;;;1935706;74;21043;-55
2022/02/18 05:22:19;;;;;;;7.83;5.03;;;8.60;56.10;;;;;;1935571;74;21023;-55
2022/02/18 05:24:49;;;;;;;12.35;6.50;;;8.60;56.60;;;;;;1935604;74;21015;-55
2022/02/18 05:27:18;;;;;;;10.38;6.00;;;8.60;56.50;;;;;;1935560;74;21093;-55
2022/02/18 05:29:48;;;;;;;11.90;6.37;;;8.60;56.50;;;;;;1935617;74;21081;-55
2022/02/18 05:32:17;;;;;;;9.58;6.40;;;8.60;56.90;;;;;;1935655;74;21024;-55
2022/02/18 05:34:46;;;;;;;12.23;6.50;;;8.60;57.00;;;;;;1935599;74;21055;-55
2022/02/18 05:37:16;;;;;;;13.25;6.35;;;8.60;57.10;;;;;;1935639;74;21104;-55
2022/02/18 05:39:47;;;;;;;9.35;6.60;;;8.60;57.20;;;;;;1935610;74;21035;-56
2022/02/18 05:42:16;;;;;;;8.30;5.00;;;8.60;56.90;;;;;;1935679;74;21039;-55
2022/02/18 05:44:46;;;;;;;9.43;6.33;;;8.60;56.60;;;;;;1935665;74;21000;-54
2022/02/18 05:47:15;;;;;;;14.65;6.33;;;8.60;56.90;;;;;;1935727;74;21019;-55
2022/02/18 05:49:44;;;;;;;15.20;6.72;;;8.60;56.80;;;;;;1935600;74;20995;-54
2022/02/18 05:52:14;;;;;;;9.98;6.87;;;8.70;57.10;;;;;;1935659;74;21043;-54
2022/02/18 05:54:44;;;;;;;8.58;5.25;;;8.60;57.00;;;;;;1935554;74;21027;-54
2022/02/18 05:57:13;;;;;;;22.20;6.15;;;8.70;56.70;;;;;;1935652;74;21059;-54
2022/02/18 05:59:43;;;;;;;12.58;5.17;;;8.70;56.80;;;;;;1938850;73;21042;-55
2022/02/18 06:02:13;;;;;;;11.35;6.90;;;8.70;56.60;;;;;;1943069;74;21092;-55
2022/02/18 06:04:42;;;;;;;15.23;4.85;;;8.70;56.80;;;;;;1943118;74;21027;-55
2022/02/18 06:07:11;;;;;;;21.87;7.87;;;8.80;56.20;;;;;;1943307;74;21015;-54
2022/02/18 06:09:41;;;;;;;22.65;7.37;;;8.80;56.10;;;;;;1943089;74;21132;-54
2022/02/18 06:12:11;;;;;;;47.45;9.78;;;8.80;55.70;;;;;;1943169;74;21074;-54
2022/02/18 06:14:40;;;;;;;11.53;6.72;;;8.90;55.90;;;;;;1943129;74;21000;-54
2022/02/18 06:17:10;;;;;;;8.80;4.05;;;8.90;55.80;;;;;;1943324;74;21100;-54
2022/02/18 06:19:39;;;;;;;17.40;6.95;;;9.00;55.10;;;;;;1943040;74;21011;-55
2022/02/18 06:22:08;;;;;;;6.80;4.15;;;9.00;55.60;;;;;;1943076;74;21014;-54
2022/02/18 06:24:38;;;;;;;9.90;5.90;;;9.00;55.40;;;;;;1943172;74;21039;-54
2022/02/18 06:27:08;;;;;;;8.70;5.50;;;9.00;55.60;;;;;;1943102;74;21108;-54
2022/02/18 06:29:37;;;;;;;9.23;5.87;;;9.00;55.60;;;;;;1943024;73;21019;-53
2022/02/18 06:32:08;;;;;;;10.45;6.03;;;9.00;55.70;;;;;;1943212;73;21014;-55
2022/02/18 06:34:38;;;;;;;11.68;7.35;;;9.10;55.80;;;;;;1943026;74;21030;-55
2022/02/18 06:37:08;;;;;;;13.80;7.05;;;9.00;55.60;;;;;;1943171;73;21019;-55
2022/02/18 06:39:37;;;;;;;12.03;6.58;;;9.10;55.50;;;;;;1943001;74;21022;-55
2022/02/18 06:42:08;;;;;;;16.73;6.12;;;9.10;54.30;;;;;;1943085;74;20999;-55
2022/02/18 06:44:37;;;;;;;9.35;5.45;;;9.10;54.70;;;;;;1943125;74;21081;-55
2022/02/18 06:47:07;;;;;;;37.28;8.13;;;9.20;53.50;;;;;;1943163;74;21109;-54
2022/02/18 06:49:36;;;;;;;12.60;6.05;;;9.20;54.30;;;;;;1943142;74;21023;-55
2022/02/18 06:52:06;;;;;;;10.63;6.08;;;9.20;53.80;;;;;;1943176;74;21011;-54
2022/02/18 06:54:35;;;;;;;12.98;6.60;;;9.30;54.30;;;;;;1942922;74;20995;-55
2022/02/18 06:57:05;;;;;;;8.53;5.12;;;9.30;54.40;;;;;;1943117;74;21137;-55
2022/02/18 06:59:34;;;;;;;14.25;6.90;;;9.30;53.70;;;;;;1942988;74;21074;-55
2022/02/18 07:02:04;;;;;;;10.13;6.40;;;9.30;54.20;;;;;;1943185;74;21128;-54
2022/02/18 07:04:34;;;;;;;9.53;6.62;;;9.40;54.10;;;;;;1943091;73;21171;-54
2022/02/18 07:07:04;;;;;;;11.20;5.35;;;9.40;53.90;;;;;;1943071;74;21019;-55
2022/02/18 07:09:33;;;;;;;12.47;6.33;;;9.40;54.70;;;;;;1942998;74;21120;-54
2022/02/18 07:12:03;;;;;;;8.78;6.00;;;9.40;55.20;;;;;;1943061;74;21085;-54
2022/02/18 07:14:33;;;;;;;11.15;6.15;;;9.50;55.30;;;;;;1943076;74;21078;-55
2022/02/18 07:17:03;;;;;;;13.88;6.47;;;9.40;55.20;;;;;;1943184;74;21024;-55
2022/02/18 07:19:33;;;;;;;8.28;5.90;;;9.40;55.20;;;;;;1943103;74;21430;-55
2022/02/18 07:22:03;;;;;;;10.38;4.58;;;9.40;55.20;;;;;;1942883;73;21019;-55
2022/02/18 07:24:32;;;;;;;11.88;6.53;;;9.50;55.10;;;;;;1941330;74;21023;-53
2022/02/18 07:27:02;;;;;;;21.80;6.22;;;9.50;54.70;;;;;;1925420;74;21183;-51
2022/02/18 07:29:33;;;;;;;13.45;6.03;;;9.50;54.60;;;;;;1862237;75;21144;-54
2022/02/18 07:32:03;;;;;;;17.75;7.17;;;9.60;55.00;;;;;;1899498;74;21023;-54
2022/02/18 07:34:32;;;;;;;17.77;8.40;;;9.60;54.60;;;;;;1872205;75;21029;-54
2022/02/18 07:37:02;;;;;;;14.68;7.35;;;9.60;55.00;;;;;;1918148;75;21103;-53
2022/02/18 07:39:31;;;;;;;12.82;7.42;;;9.60;54.70;;;;;;1917649;75;21030;-54
2022/02/18 07:42:01;;;;;;;10.98;4.67;;;9.60;54.90;;;;;;1901970;75;21085;-54
2022/02/18 07:44:33;;;;;;;14.28;7.67;;;9.60;54.10;;;;;;1917674;74;21038;-53
2022/02/18 07:47:02;;;;;;;13.15;8.08;;;9.70;55.30;;;;;;1917848;75;22212;-55
2022/02/18 07:49:31;;;;;;;13.30;5.90;;;9.70;56.00;;;;;;1918011;75;21026;-54
2022/02/18 07:52:00;;;;;;;12.03;7.17;;;9.70;56.10;;;;;;1918240;75;21120;-53
2022/02/18 07:54:30;;;;;;;15.95;6.95;;;9.60;55.50;;;;;;1896967;75;21097;-54
2022/02/18 07:57:00;;;;;;;12.60;7.50;;;9.70;55.10;;;;;;1893157;75;21030;-55
2022/02/18 07:59:29;;;;;;;12.03;7.75;;;9.70;55.00;;;;;;1906729;74;21010;-55
2022/02/18 08:01:59;;;;;;;12.18;4.97;;;9.80;55.40;;;;;;1948150;73;21477;-55
2022/02/18 08:04:28;;;;;;;12.18;7.47;;;9.80;55.80;;;;;;1924773;73;21113;-54
2022/02/18 08:06:58;;;;;;;9.78;5.67;;;9.90;55.90;;;;;;1918395;75;21008;-55
2022/02/18 08:09:27;;;;;;;13.98;6.92;;;9.90;55.20;;;;;;1917897;75;21174;-55
2022/02/18 08:11:56;;;;;;;12.25;6.35;;;9.90;55.20;;;;;;1918241;74;21101;-55
2022/02/18 08:14:26;;;;;;;9.65;5.37;;;9.90;54.80;;;;;;1917035;75;21068;-55
2022/02/18 08:16:55;;;;;;;9.00;6.17;;;10.00;54.10;;;;;;1917938;75;21064;-54
2022/02/18 08:19:25;;;;;;;13.00;6.53;;;10.00;54.00;;;;;;1918358;75;21055;-55
2022/02/18 08:21:56;;;;;;;12.53;6.85;;;10.10;54.10;;;;;;1924374;74;21185;-55
2022/02/18 08:24:40;;;;;;;9.20;5.80;;;10.10;54.00;;;;;;1919643;74;21567;-54
2022/02/18 08:27:26;;;;;;;24.95;6.05;;;10.20;53.40;;;;;;1877062;76;21133;-54
2022/02/18 08:30:03;;;;;;;9.55;6.40;;;10.30;52.40;;;;;;1903104;75;21188;-55
2022/02/18 08:32:48;;;;;;;15.68;6.78;;;10.30;53.20;;;;;;1908987;75;21118;-53
2022/02/18 08:35:29;;;;;;;11.88;6.55;;;10.40;52.90;;;;;;1910534;75;21166;-55
2022/02/18 08:38:12;;;;;;;12.05;6.40;;;10.50;53.00;;;;;;1908826;75;21147;-53
2022/02/18 08:40:49;;;;;;;13.43;5.58;;;10.60;52.80;;;;;;1910209;75;21035;-54
2022/02/18 08:43:20;;;;;;;10.98;7.03;;;10.70;52.40;;;;;;1911414;75;21024;-55
2022/02/18 08:45:50;;;;;;;11.18;7.40;;;10.70;52.50;;;;;;1911738;75;21032;-46
2022/02/18 08:48:19;;;;;;;8.40;6.45;;;10.80;52.10;;;;;;1911652;75;21082;-55
2022/02/18 08:50:48;;;;;;;10.53;7.00;;;10.90;51.40;;;;;;1911619;75;21030;-55
2022/02/18 08:53:18;;;;;;;8.48;6.10;;;10.90;51.80;;;;;;1911779;75;21106;-56
2022/02/18 08:55:47;;;;;;;10.60;5.78;;;10.90;51.80;;;;;;1911745;75;21048;-56
2022/02/18 08:58:16;;;;;;;12.03;6.15;;;10.90;52.10;;;;;;1911472;75;21032;-55
2022/02/18 09:00:46;;;;;;;14.80;7.42;;;10.90;51.20;;;;;;1911438;74;21091;-50
2022/02/18 09:03:15;;;;;;;71.47;10.43;;;11.00;50.70;;;;;;1923178;74;21083;-53
2022/02/18 09:05:45;;;;;;;9.43;4.92;;;11.00;47.90;;;;;;1923825;74;21321;-56
2022/02/18 09:08:15;;;;;;;10.15;6.90;;;11.10;49.30;;;;;;1923840;74;21311;-52
2022/02/18 09:10:44;;;;;;;32.10;7.47;;;11.10;49.00;;;;;;1923810;74;21020;-51
2022/02/18 09:13:14;;;;;;;15.55;8.08;;;11.10;49.60;;;;;;1923617;74;21023;-47
2022/02/18 09:15:44;;;;;;;12.10;4.80;;;11.10;50.10;;;;;;1922425;74;21000;-47
2022/02/18 09:18:20;;;;;;;13.05;6.67;;;11.20;49.30;;;;;;1922171;74;21094;-47
2022/02/18 09:20:50;;;;;;;21.65;8.35;;;11.20;49.20;;;;;;1923633;74;21024;-46
2022/02/18 09:23:19;;;;;;;8.50;5.35;;;11.20;50.40;;;;;;1923735;74;21103;-53
2022/02/18 09:25:49;;;;;;;9.33;5.70;;;11.20;48.90;;;;;;1923570;74;21071;-53
2022/02/18 09:28:23;;;;;;;41.55;8.78;;;11.20;48.50;;;;;;1923445;74;21071;-52
2022/02/18 09:30:55;;;;;;;10.58;6.42;;;11.30;48.60;;;;;;1923726;74;21599;-54
2022/02/18 09:33:25;;;;;;;12.23;6.40;;;11.30;48.30;;;;;;1923803;74;21443;-52
2022/02/18 09:35:55;;;;;;;8.65;5.72;;;11.30;48.70;;;;;;1923646;74;21175;-53
2022/02/18 09:38:27;;;;;;;17.25;6.05;;;11.30;48.80;;;;;;1923612;74;21321;-52
2022/02/18 09:40:56;;;;;;;13.50;8.48;;;11.40;48.20;;;;;;1923195;74;21086;-52
2022/02/18 09:43:25;;;;;;;11.25;6.58;;;11.40;48.90;;;;;;1923381;74;21167;-51
2022/02/18 09:45:56;;;;;;;14.40;6.70;;;11.40;48.60;;;;;;1923654;74;21074;-49
2022/02/18 09:48:27;;;;;;;17.90;7.60;;;11.40;48.80;;;;;;1923460;74;21191;-55
2022/02/18 09:50:57;;;;;;;15.43;8.23;;;11.40;48.50;;;;;;1923418;74;21050;-56
2022/02/18 09:53:26;;;;;;;15.98;6.62;;;11.40;49.00;;;;;;1923595;74;21191;-55
2022/02/18 09:55:57;;;;;;;13.10;6.28;;;11.40;48.00;;;;;;1923483;74;21070;-50
2022/02/18 09:58:26;;;;;;;10.82;5.80;;;11.40;49.00;;;;;;1943540;73;21155;-54
2022/02/18 10:00:57;;;;;;;14.70;6.33;;;11.40;48.10;;;;;;1957147;73;21178;-56
2022/02/18 10:03:27;;;;;;;11.25;7.30;;;11.40;48.60;;;;;;1935856;73;21117;-55
2022/02/18 10:05:57;;;;;;;11.35;6.85;;;11.40;48.70;;;;;;1934648;74;21088;-57
2022/02/18 10:08:28;;;;;;;13.32;6.80;;;11.30;49.00;;;;;;1920364;74;21054;-56
2022/02/18 10:11:06;;;;;;;9.05;5.75;;;11.30;49.30;;;;;;1901070;75;21097;-57
2022/02/18 10:13:37;;;;;;;13.60;7.15;;;11.30;49.10;;;;;;1901118;75;21164;-55
2022/02/18 10:16:08;;;;;;;10.05;6.05;;;11.30;49.20;;;;;;1900564;75;21027;-56
2022/02/18 10:18:54;;;;;;;18.85;9.68;;;11.30;48.80;;;;;;1900650;75;21108;-56
2022/02/18 10:21:32;;;;;;;15.30;7.62;;;11.40;49.10;;;;;;1901255;75;21493;-56
2022/02/18 10:24:21;;;;;;;12.50;6.67;;;11.40;49.30;;;;;;1900998;75;21070;-55
2022/02/18 10:26:54;;;;;;;14.10;7.97;;;11.40;50.00;;;;;;1901124;75;21469;-53
2022/02/18 10:29:40;;;;;;;13.10;7.08;;;11.40;50.20;;;;;;1900103;75;21119;-55
2022/02/18 10:32:14;;;;;;;15.20;6.42;;;11.40;50.30;;;;;;1902183;75;21024;-54
2022/02/18 10:34:57;;;;;;;6.85;4.55;;;11.40;50.30;;;;;;1899806;74;21009;-52
2022/02/18 10:37:28;;;;;;;9.85;5.90;;;11.40;49.40;;;;;;1929834;74;21020;-54
2022/02/18 10:40:13;;;;;;;17.85;5.30;;;11.40;49.70;;;;;;1934564;74;21039;-54
2022/02/18 10:42:45;;;;;;;17.90;5.62;;;11.40;48.90;;;;;;1932960;74;21032;-55
2022/02/18 10:45:19;;;;;;;13.20;6.67;;;11.40;48.40;;;;;;1927584;74;21019;-54
2022/02/18 10:47:50;;;;;;;10.80;5.70;;;11.40;49.30;;;;;;1934823;74;21132;-55
2022/02/18 10:50:22;;;;;;;12.05;6.45;;;11.40;49.40;;;;;;1934758;74;21019;-54
2022/02/18 10:53:14;;;;;;;10.32;6.03;;;11.40;48.70;;;;;;1928934;74;21075;-53
2022/02/18 10:55:54;;;;;;;13.78;6.65;;;11.40;48.70;;;;;;1901333;74;21090;-51
2022/02/18 10:58:26;;;;;;;13.50;6.22;;;11.50;48.60;;;;;;1902649;74;21090;-54
2022/02/18 11:01:19;;;;;;;10.85;5.87;;;11.50;47.60;;;;;;1890831;74;21073;-57
2022/02/18 11:04:00;;;;;;;16.65;6.45;;;11.60;48.40;;;;;;1902030;75;21082;-55
2022/02/18 11:06:34;;;;;;;12.33;7.47;;;11.60;49.00;;;;;;1903956;75;21561;-56
2022/02/18 11:09:11;;;;;;;28.47;11.65;;;11.70;49.20;;;;;;1901007;75;21016;-57
2022/02/18 11:11:45;;;;;;;13.88;6.85;;;11.70;49.20;;;;;;1901402;75;21134;-57
2022/02/18 11:14:17;;;;;;;12.58;7.72;;;11.80;49.50;;;;;;1900437;75;21091;-56
2022/02/18 11:16:52;;;;;;;14.80;7.00;;;11.90;49.60;;;;;;1900414;75;21193;-57
2022/02/18 11:19:20;;;;;;;10.60;5.85;;;11.90;49.40;;;;;;1901609;75;21479;-57
2022/02/18 11:21:49;;;;;;;10.48;6.72;;;12.00;48.80;;;;;;1900983;75;21084;-57
2022/02/18 11:24:24;;;;;;;13.30;7.70;;;12.00;49.40;;;;;;1906916;75;21122;-57
2022/02/18 11:26:54;;;;;;;13.68;7.45;;;12.00;49.60;;;;;;1908869;75;21077;-56
2022/02/18 11:29:24;;;;;;;16.93;7.80;;;12.10;49.60;;;;;;1908893;75;21138;-56
2022/02/18 11:31:58;;;;;;;15.25;8.13;;;12.10;50.10;;;;;;1908838;75;21066;-56
2022/02/18 11:34:45;;;;;;;13.18;5.95;;;12.20;49.90;;;;;;1908740;75;21101;-56
2022/02/18 11:37:50;;;;;;;7.90;5.22;;;12.20;49.90;;;;;;1908897;75;21092;-56
2022/02/18 11:40:49;;;;;;;13.88;7.90;;;12.20;50.20;;;;;;1908965;75;21019;-56
2022/02/18 11:43:27;;;;;;;15.72;8.28;;;12.20;52.20;;;;;;1908330;75;21109;-57
2022/02/18 11:46:03;;;;;;;10.15;5.78;;;12.10;53.30;;;;;;1908928;75;21007;-56
2022/02/18 11:48:47;;;;;;;26.17;7.28;;;12.00;55.20;;;;;;1908779;75;21093;-57
2022/02/18 11:51:22;;;;;;;11.73;7.35;;;12.00;56.70;;;;;;1908266;75;21070;-57
2022/02/18 11:53:55;;;;;;;14.25;6.42;;;12.00;56.90;;;;;;1908355;75;21010;-57
2022/02/18 11:56:45;;;;;;;14.40;8.90;;;11.90;59.20;;;;;;1908624;75;21006;-56
2022/02/18 11:59:14;;;;;;;12.55;7.20;;;11.80;58.90;;;;;;1908667;75;21063;-57
2022/02/18 12:02:00;;;;;;;13.30;6.60;;;11.70;60.90;;;;;;1908932;75;21050;-56
2022/02/18 12:04:30;;;;;;;10.53;6.35;;;11.60;62.60;;;;;;1904145;74;21047;-56
2022/02/18 12:07:30;;;;;;;16.27;8.90;;;11.40;64.10;;;;;;1903804;75;21093;-57
2022/02/18 12:10:02;;;;;;;14.03;7.65;;;11.20;64.50;;;;;;1903768;75;21027;-57
2022/02/18 12:12:37;;;;;;;10.95;6.30;;;11.00;66.60;;;;;;1903285;75;21576;-56
2022/02/18 12:15:19;;;;;;;17.75;9.30;;;10.90;67.50;;;;;;1903983;74;21611;-56
2022/02/18 12:18:03;;;;;;;16.20;7.97;;;10.80;66.80;;;;;;1903790;74;21003;-57
2022/02/18 12:20:32;;;;;;;14.10;7.60;;;10.70;69.20;;;;;;1903457;74;21027;-57
2022/02/18 12:23:20;;;;;;;11.45;6.50;;;10.70;71.70;;;;;;1902838;75;21039;-57
2022/02/18 12:25:50;;;;;;;12.30;7.22;;;10.60;71.10;;;;;;1906100;75;21138;-56
2022/02/18 12:28:21;;;;;;;12.10;5.92;;;10.60;72.60;;;;;;1907603;75;21034;-57
2022/02/18 12:31:09;;;;;;;11.33;7.20;;;10.60;72.20;;;;;;1907664;75;21105;-56
2022/02/18 12:33:32;;;;;;;17.92;9.88;;;10.60;74.20;;;;;;1905411;75;21019;-57
2022/02/18 12:36:13;;;;;;;10.95;6.30;;;10.50;73.50;;;;;;1906721;74;21094;-56
2022/02/18 12:38:44;;;;;;;12.88;6.17;;;10.50;75.00;;;;;;1906800;75;21019;-57
2022/02/18 12:41:14;;;;;;;15.43;9.08;;;10.40;75.80;;;;;;1906574;75;21079;-57
2022/02/18 12:43:44;;;;;;;11.22;7.40;;;10.30;74.70;;;;;;1907858;75;21070;-57
2022/02/18 12:46:14;;;;;;;15.05;9.23;;;10.30;76.40;;;;;;1907767;75;21047;-57
2022/02/18 12:48:48;;;;;;;17.60;9.93;;;10.20;75.90;;;;;;1907731;75;21031;-57
2022/02/18 12:51:25;;;;;;;17.82;8.90;;;10.20;76.10;;;;;;1907940;75;21141;-57
2022/02/18 12:53:57;;;;;;;13.98;8.48;;;10.10;76.30;;;;;;1907694;75;21047;-57
2022/02/18 12:56:31;;;;;;;14.90;8.73;;;10.00;77.90;;;;;;1907080;75;21079;-57
2022/02/18 12:59:04;;;;;;;16.40;9.27;;;10.00;78.50;;;;;;1906658;75;20999;-57
2022/02/18 13:01:33;;;;;;;14.55;8.68;;;10.00;78.60;;;;;;1907156;74;21179;-57
2022/02/18 13:04:22;;;;;;;15.00;8.45;;;10.00;78.60;;;;;;1919903;74;21103;-57
2022/02/18 13:06:52;;;;;;;15.03;7.15;;;10.00;78.50;;;;;;1935640;73;21019;-57
2022/02/18 13:09:25;;;;;;;12.25;6.83;;;9.90;80.30;;;;;;1935560;74;21030;-57
2022/02/18 13:11:53;;;;;;;15.23;8.68;;;9.90;80.60;;;;;;1936265;74;21447;-57